createdAt,value
2019-05-11T00:00:07.408Z,47.00
2019-05-11T00:02:56.281Z,47.00
2019-05-11T00:05:44.399Z,47.00
2019-05-11T00:08:32.735Z,47.00
2019-05-11T00:11:21.257Z,47.00
2019-05-11T00:14:09.427Z,47.00
2019-05-11T00:16:57.674Z,47.00
2019-05-11T00:19:45.959Z,47.00
2019-05-11T00:22:34.278Z,47.00
2019-05-11T00:25:22.740Z,47.00
2019-05-11T00:28:11.559Z,46.90
2019-05-11T00:30:59.703Z,46.90
2019-05-11T00:33:48.464Z,46.80
2019-05-11T00:36:36.945Z,46.90
2019-05-11T00:39:25.379Z,46.90
2019-05-11T00:42:13.566Z,46.90
2019-05-11T00:45:01.759Z,46.90
2019-05-11T00:47:50.266Z,46.90
2019-05-11T00:50:39.941Z,46.80
2019-05-11T00:53:28.534Z,46.90
2019-05-11T00:56:17.063Z,46.80
2019-05-11T00:59:19.832Z,46.80
2019-05-11T01:01:55.479Z,46.80
2019-05-11T01:04:43.906Z,46.80
2019-05-11T01:07:32.158Z,46.90
2019-05-11T01:10:25.687Z,46.80
2019-05-11T01:13:10.507Z,46.90
2019-05-11T01:15:59.084Z,47.10
2019-05-11T01:18:47.595Z,47.10
2019-05-11T01:21:35.833Z,47.10
2019-05-11T01:24:24.216Z,47.10
2019-05-11T01:27:12.487Z,47.20
2019-05-11T01:30:00.886Z,47.10
2019-05-11T01:32:51.019Z,47.20
2019-05-11T01:35:40.439Z,47.30
2019-05-11T01:38:28.834Z,47.30
2019-05-11T01:41:17.032Z,47.30
2019-05-11T01:44:05.419Z,47.30
2019-05-11T01:46:53.643Z,47.30
2019-05-11T01:49:41.844Z,47.20
2019-05-11T01:52:30.100Z,47.20
2019-05-11T01:55:18.543Z,47.70
2019-05-11T01:58:07.083Z,47.60
2019-05-11T02:00:55.378Z,47.10
2019-05-11T02:03:45.073Z,46.70
2019-05-11T02:06:34.677Z,46.10
2019-05-11T02:09:22.947Z,45.90
2019-05-11T02:12:11.063Z,45.80
2019-05-11T02:14:59.455Z,45.70
2019-05-11T02:17:47.895Z,45.70
2019-05-11T02:20:36.406Z,45.60
2019-05-11T02:23:24.911Z,45.50
2019-05-11T02:26:13.099Z,45.30
2019-05-11T02:29:01.328Z,45.30
2019-05-11T02:31:49.541Z,45.30
2019-05-11T02:34:37.979Z,45.30
2019-05-11T02:37:26.291Z,45.20
2019-05-11T02:40:14.512Z,45.20
2019-05-11T02:43:02.796Z,45.10
2019-05-11T02:45:50.869Z,45.00
2019-05-11T02:48:39.155Z,45.10
2019-05-11T02:51:28.970Z,44.90
2019-05-11T02:54:17.485Z,45.50
2019-05-11T02:57:06.015Z,45.10
2019-05-11T02:59:54.368Z,45.20
2019-05-11T03:02:42.935Z,45.30
2019-05-11T03:05:31.144Z,45.60
2019-05-11T03:08:22.481Z,45.60
2019-05-11T03:11:10.719Z,45.70
2019-05-11T03:14:00.073Z,45.70
2019-05-11T03:16:50.074Z,45.80
2019-05-11T03:19:38.324Z,45.80
2019-05-11T03:22:26.612Z,45.50
2019-05-11T03:25:14.781Z,45.10
2019-05-11T03:28:03.348Z,44.90
2019-05-11T03:30:51.832Z,44.60
2019-05-11T03:33:40.298Z,44.30
2019-05-11T03:36:28.561Z,44.30
2019-05-11T03:39:16.967Z,44.20
2019-05-11T03:42:14.822Z,44.00
2019-05-11T03:44:55.440Z,44.00
2019-05-11T03:47:43.679Z,43.90
2019-05-11T03:50:32.107Z,44.10
2019-05-11T03:53:20.410Z,44.00
2019-05-11T03:56:08.957Z,43.90
2019-05-11T03:58:57.302Z,43.80
2019-05-11T04:01:45.803Z,43.90
2019-05-11T04:04:34.315Z,43.90
2019-05-11T04:07:22.489Z,43.80
2019-05-11T04:10:12.110Z,43.90
2019-05-11T04:13:12.860Z,43.80
2019-05-11T04:16:01.145Z,43.80
2019-05-11T04:18:49.403Z,43.70
2019-05-11T04:21:38.363Z,43.80
2019-05-11T04:24:26.784Z,44.50
2019-05-11T04:27:19.337Z,43.80
2019-05-11T04:30:08.191Z,43.80
2019-05-11T04:32:57.995Z,43.90
2019-05-11T04:35:46.195Z,43.70
2019-05-11T04:38:34.889Z,43.80
2019-05-11T04:41:23.410Z,43.80
2019-05-11T04:44:12.008Z,43.70
2019-05-11T04:47:00.480Z,44.00
2019-05-11T04:49:48.699Z,43.90
2019-05-11T04:52:37.479Z,44.00
2019-05-11T04:55:30.734Z,44.10
2019-05-11T04:58:19.187Z,44.30
2019-05-11T05:01:27.534Z,44.40
2019-05-11T05:04:16.046Z,44.30
2019-05-11T05:07:05.370Z,44.20
2019-05-11T05:09:54.489Z,44.80
2019-05-11T05:12:50.503Z,45.20
2019-05-11T05:18:47.626Z,45.90
2019-05-11T05:21:35.972Z,46.00
2019-05-11T05:24:25.180Z,46.20
2019-05-11T05:27:13.434Z,46.20
2019-05-11T05:30:02.060Z,46.30
2019-05-11T05:32:51.863Z,46.50
2019-05-11T05:35:40.428Z,46.60
2019-05-11T05:38:28.762Z,46.70
2019-05-11T05:41:17.382Z,46.70
2019-05-11T05:44:05.863Z,47.10
2019-05-11T05:46:54.457Z,47.10
2019-05-11T05:49:42.992Z,47.00
2019-05-11T05:52:31.372Z,47.10
2019-05-11T05:55:19.899Z,47.10
2019-05-11T05:58:07.993Z,47.10
2019-05-11T06:00:56.387Z,47.10
2019-05-11T06:04:04.282Z,47.10
2019-05-11T06:06:52.848Z,47.10
2019-05-11T06:09:41.167Z,47.10
2019-05-11T06:12:29.599Z,47.10
2019-05-11T06:15:17.875Z,47.30
2019-05-11T06:18:09.426Z,47.30
2019-05-11T06:20:58.223Z,47.40
2019-05-11T06:23:46.956Z,47.60
2019-05-11T06:26:36.522Z,47.70
2019-05-11T06:29:24.966Z,47.60
2019-05-11T06:32:13.391Z,47.60
2019-05-11T06:35:01.906Z,47.90
2019-05-11T06:37:50.322Z,47.80
2019-05-11T06:40:38.851Z,47.70
2019-05-11T06:43:27.371Z,47.70
2019-05-11T06:46:15.883Z,47.80
2019-05-11T06:49:04.352Z,47.70
2019-05-11T06:51:52.753Z,47.80
2019-05-11T06:54:40.951Z,47.80
2019-05-11T06:57:29.234Z,48.00
2019-05-11T07:00:17.474Z,47.90
2019-05-11T07:03:06.146Z,47.80
2019-05-11T07:06:06.790Z,47.90
2019-05-11T07:08:54.886Z,47.80
2019-05-11T07:11:43.395Z,47.60
2019-05-11T07:14:32.014Z,47.50
2019-05-11T07:17:20.383Z,47.40
2019-05-11T07:20:09.178Z,47.40
2019-05-11T07:22:57.356Z,47.50
2019-05-11T07:25:45.982Z,47.60
2019-05-11T07:28:34.195Z,47.30
2019-05-11T07:31:22.521Z,47.00
2019-05-11T07:34:10.878Z,46.50
2019-05-11T07:36:59.135Z,46.20
2019-05-11T07:39:48.753Z,45.90
2019-05-11T07:42:38.107Z,45.80
2019-05-11T07:45:28.351Z,45.90
2019-05-11T07:48:18.552Z,46.00
2019-05-11T07:51:08.737Z,46.10
2019-05-11T07:53:57.833Z,46.10
2019-05-11T07:56:47.940Z,46.10
2019-05-11T07:59:38.100Z,45.90
2019-05-11T08:02:28.554Z,45.90
2019-05-11T08:05:17.962Z,46.00
2019-05-11T08:08:08.550Z,46.10
2019-05-11T08:10:55.834Z,46.10
2019-05-11T08:13:44.319Z,46.10
2019-05-11T08:16:32.859Z,45.90
2019-05-11T08:19:21.423Z,45.90
2019-05-11T08:22:09.582Z,45.80
2019-05-11T08:24:58.695Z,45.80
2019-05-11T08:27:48.557Z,45.70
2019-05-11T08:30:38.133Z,45.50
2019-05-11T08:33:28.387Z,45.50
2019-05-11T08:36:18.425Z,45.30
2019-05-11T08:39:08.212Z,45.30
2019-05-11T08:41:58.789Z,45.30
2019-05-11T08:44:48.326Z,45.00
2019-05-11T08:47:37.784Z,45.10
2019-05-11T08:50:27.903Z,45.40
2019-05-11T08:53:17.883Z,45.20
2019-05-11T08:56:09.262Z,45.10
2019-05-11T08:58:58.825Z,45.20
2019-05-11T09:01:48.444Z,45.20
2019-05-11T09:04:41.570Z,45.10
2019-05-11T09:07:48.230Z,44.60
2019-05-11T09:10:37.612Z,44.20
2019-05-11T09:13:27.895Z,44.10
2019-05-11T09:16:15.955Z,44.10
2019-05-11T09:19:05.673Z,44.00
2019-05-11T09:21:54.363Z,44.00
2019-05-11T09:24:42.866Z,44.00
2019-05-11T09:27:31.002Z,43.80
2019-05-11T09:30:19.650Z,43.70
2019-05-11T09:33:08.630Z,43.80
2019-05-11T09:35:58.380Z,44.00
2019-05-11T09:38:48.935Z,44.20
2019-05-11T09:41:38.256Z,44.40
2019-05-11T09:44:28.847Z,44.50
2019-05-11T09:47:18.931Z,44.20
2019-05-11T09:50:08.603Z,44.30
2019-05-11T09:52:58.127Z,44.10
2019-05-11T09:56:08.194Z,44.00
2019-05-11T09:58:58.200Z,44.20
2019-05-11T10:01:48.293Z,44.40
2019-05-11T10:04:38.004Z,44.60
2019-05-11T10:07:28.559Z,44.90
2019-05-11T10:10:18.428Z,45.10
2019-05-11T10:13:08.053Z,45.50
2019-05-11T10:16:04.607Z,46.10
2019-05-11T10:18:48.904Z,48.30
2019-05-11T10:21:38.281Z,49.00
2019-05-11T10:24:28.131Z,49.70
2019-05-11T10:27:15.711Z,50.00
2019-05-11T10:30:08.117Z,49.90
2019-05-11T10:32:57.798Z,49.80
2019-05-11T10:35:48.177Z,49.90
2019-05-11T10:38:37.946Z,49.90
2019-05-11T10:41:28.264Z,49.80
2019-05-11T10:44:16.023Z,49.50
2019-05-11T10:47:04.294Z,49.50
2019-05-11T10:49:52.575Z,49.80
2019-05-11T10:52:41.099Z,50.00
2019-05-11T10:55:29.622Z,50.70
2019-05-11T10:58:18.572Z,50.60
2019-05-11T11:01:08.881Z,50.70
2019-05-11T11:03:58.740Z,51.00
2019-05-11T11:06:48.546Z,50.90
2019-05-11T11:09:38.608Z,50.70
2019-05-11T11:12:27.948Z,51.30
2019-05-11T11:15:18.320Z,51.80
2019-05-11T11:18:08.410Z,52.30
2019-05-11T11:20:58.066Z,52.50
2019-05-11T11:23:48.008Z,52.60
2019-05-11T11:26:38.071Z,52.60
2019-05-11T11:29:28.837Z,52.90
2019-05-11T11:32:18.407Z,52.90
2019-05-11T11:35:08.437Z,53.00
2019-05-11T11:37:58.429Z,53.00
2019-05-11T11:40:48.148Z,52.70
2019-05-11T11:43:37.766Z,52.60
2019-05-11T11:46:27.795Z,52.60
2019-05-11T11:49:18.192Z,52.60
2019-05-11T11:52:08.273Z,52.70
2019-05-11T11:54:58.475Z,52.50
2019-05-11T11:57:48.544Z,52.30
2019-05-11T12:00:38.871Z,52.30
2019-05-11T12:03:27.737Z,52.50
2019-05-11T12:06:18.173Z,52.30
2019-05-11T12:09:08.778Z,52.30
2019-05-11T12:11:58.048Z,52.40
2019-05-11T12:14:48.006Z,52.50
2019-05-11T12:17:38.021Z,52.30
2019-05-11T12:20:28.491Z,52.40
2019-05-11T12:23:17.982Z,52.30
2019-05-11T12:26:08.500Z,52.40
2019-05-11T12:28:57.707Z,52.40
2019-05-11T12:31:48.425Z,52.40
2019-05-11T12:34:37.506Z,52.40
2019-05-11T12:37:28.174Z,52.30
2019-05-11T12:40:17.972Z,52.10
2019-05-11T12:43:08.177Z,52.10
2019-05-11T12:45:58.729Z,51.90
2019-05-11T12:48:48.545Z,51.80
2019-05-11T12:51:38.279Z,51.60
2019-05-11T12:54:28.008Z,51.60
2019-05-11T12:57:18.701Z,51.40
2019-05-11T13:00:08.645Z,51.40
2019-05-11T13:02:58.703Z,51.50
2019-05-11T13:05:48.475Z,51.20
2019-05-11T13:08:38.832Z,51.20
2019-05-11T13:11:28.600Z,51.10
2019-05-11T13:14:18.457Z,51.10
2019-05-11T13:17:07.809Z,51.20
2019-05-11T13:19:58.622Z,51.10
2019-05-11T13:22:48.644Z,51.00
2019-05-11T13:25:38.608Z,51.10
2019-05-11T13:28:28.224Z,51.00
2019-05-11T13:31:18.392Z,51.20
2019-05-11T13:34:08.416Z,51.00
2019-05-11T13:36:57.500Z,50.80
2019-05-11T13:39:48.395Z,51.00
2019-05-11T13:42:38.324Z,50.90
2019-05-11T13:45:28.050Z,51.00
2019-05-11T13:48:17.745Z,51.00
2019-05-11T13:51:05.639Z,51.00
2019-05-11T13:53:54.153Z,51.00
2019-05-11T13:56:42.166Z,51.00
2019-05-11T13:59:30.363Z,51.00
2019-05-11T14:02:18.958Z,51.00
2019-05-11T14:05:28.579Z,51.10
2019-05-11T14:08:18.612Z,51.00
2019-05-11T14:11:08.638Z,51.10
2019-05-11T14:13:58.509Z,51.20
2019-05-11T14:16:48.506Z,51.30
2019-05-11T14:19:38.574Z,51.30
2019-05-11T14:22:28.196Z,51.40
2019-05-11T14:25:18.552Z,51.40
2019-05-11T14:28:08.862Z,51.50
2019-05-11T14:31:09.319Z,51.60
2019-05-11T14:33:57.989Z,51.80
2019-05-11T14:36:48.680Z,51.90
2019-05-11T14:39:38.343Z,51.90
2019-05-11T14:42:28.681Z,51.60
2019-05-11T14:45:18.934Z,51.30
2019-05-11T14:48:22.982Z,51.40
2019-05-11T14:50:59.348Z,51.40
2019-05-11T14:53:48.356Z,51.30
2019-05-11T14:56:38.069Z,51.30
2019-05-11T14:59:28.558Z,51.30
2019-05-11T15:02:34.412Z,51.40
2019-05-11T15:05:23.051Z,51.50
2019-05-11T15:08:11.671Z,51.60
2019-05-11T15:11:00.181Z,51.70
2019-05-11T15:13:49.018Z,51.70
2019-05-11T15:16:38.438Z,51.60
2019-05-11T15:19:27.889Z,51.80
2019-05-11T15:22:18.176Z,51.70
2019-05-11T15:25:08.058Z,52.30
2019-05-11T15:27:58.410Z,51.80
2019-05-11T15:30:48.377Z,51.90
2019-05-11T15:33:38.263Z,51.90
2019-05-11T15:36:28.533Z,51.80
2019-05-11T15:39:18.454Z,51.80
2019-05-11T15:42:11.702Z,51.80
2019-05-11T15:44:58.597Z,51.70
2019-05-11T15:47:48.724Z,51.70
2019-05-11T15:50:39.775Z,51.60
2019-05-11T15:53:26.743Z,51.60
2019-05-11T15:56:15.262Z,51.60
2019-05-11T15:59:03.602Z,51.80
2019-05-11T16:01:54.578Z,51.80
2019-05-11T16:04:41.934Z,51.70
2019-05-11T16:07:29.902Z,51.70
2019-05-11T16:10:18.702Z,51.70
2019-05-11T16:13:09.275Z,51.70
2019-05-11T16:15:58.030Z,51.70
2019-05-11T16:18:48.386Z,51.70
2019-05-11T16:21:38.168Z,51.60
2019-05-11T16:24:26.084Z,51.60
2019-05-11T16:27:14.426Z,51.20
2019-05-11T16:30:03.314Z,51.30
2019-05-11T16:32:51.730Z,51.60
2019-05-11T16:35:40.354Z,51.60
2019-05-11T16:38:29.103Z,51.60
2019-05-11T16:41:17.868Z,51.60
2019-05-11T16:44:08.007Z,51.60
2019-05-11T16:46:58.642Z,51.60
2019-05-11T16:49:47.420Z,51.70
2019-05-11T16:52:38.471Z,51.90
2019-05-11T16:55:25.834Z,52.00
2019-05-11T16:58:14.083Z,52.20
2019-05-11T17:01:02.334Z,52.30
2019-05-11T17:03:50.708Z,52.30
2019-05-11T17:06:40.385Z,52.30
2019-05-11T17:09:28.839Z,52.30
2019-05-11T17:12:17.988Z,52.20
2019-05-11T17:15:10.771Z,52.20
2019-05-11T17:17:59.538Z,52.00
2019-05-11T17:20:47.839Z,51.40
2019-05-11T17:23:38.342Z,50.80
2019-05-11T17:26:27.908Z,50.50
2019-05-11T17:29:18.585Z,50.30
2019-05-11T17:32:08.561Z,50.10
2019-05-11T17:34:58.142Z,50.10
2019-05-11T17:37:48.614Z,49.90
2019-05-11T17:40:38.237Z,49.80
2019-05-11T17:43:29.222Z,49.70
2019-05-11T17:46:18.764Z,49.70
2019-05-11T17:49:07.858Z,49.70
2019-05-11T17:51:56.401Z,49.60
2019-05-11T17:54:47.288Z,49.50
2019-05-11T17:57:35.054Z,49.50
2019-05-11T18:00:23.620Z,49.50
2019-05-11T18:03:12.158Z,49.50
2019-05-11T18:06:00.431Z,49.50
2019-05-11T18:08:49.039Z,49.40
2019-05-11T18:11:37.984Z,49.40
2019-05-11T18:14:28.132Z,49.50
2019-05-11T23:04:38.529Z,48.30
2019-05-11T23:07:28.782Z,48.40
2019-05-11T23:10:18.297Z,48.30
2019-05-11T23:13:11.370Z,48.30
2019-05-11T23:15:59.628Z,48.20
2019-05-11T23:18:48.420Z,48.20
2019-05-11T23:21:38.807Z,48.20
2019-05-11T23:24:28.754Z,48.30
2019-05-11T23:27:18.103Z,48.20
2019-05-11T23:30:08.705Z,48.20
2019-05-11T23:32:58.702Z,48.30
2019-05-11T23:35:48.528Z,48.20
2019-05-11T23:38:38.679Z,48.20
2019-05-11T23:41:28.747Z,48.20
2019-05-11T23:44:17.952Z,48.20
2019-05-11T23:47:06.562Z,48.30
2019-05-11T23:49:54.835Z,48.20
2019-05-11T23:52:43.010Z,48.10
2019-05-11T23:55:31.697Z,48.10
2019-05-11T23:58:19.804Z,48.30
